createdAt,value
2018-10-16T00:01:18.021Z,8.75
2018-10-16T00:03:45.805Z,8.75
2018-10-16T00:06:13.518Z,8.13
2018-10-16T00:08:41.246Z,8.33
2018-10-16T00:11:08.966Z,8.67
2018-10-16T00:13:36.761Z,8.10
2018-10-16T00:16:04.655Z,8.60
2018-10-16T00:18:32.441Z,8.60
2018-10-16T00:21:00.131Z,8.33
2018-10-16T00:23:27.843Z,7.67
2018-10-16T00:25:55.584Z,8.53
2018-10-16T00:28:23.275Z,8.83
2018-10-16T00:30:51.041Z,8.15
2018-10-16T00:33:18.750Z,9.70
2018-10-16T00:35:46.451Z,8.50
2018-10-16T00:38:14.229Z,8.38
2018-10-16T00:40:41.981Z,7.90
2018-10-16T00:43:09.641Z,8.10
2018-10-16T00:45:37.462Z,7.30
2018-10-16T00:48:05.473Z,10.13
2018-10-16T00:50:33.212Z,8.03
2018-10-16T00:53:00.909Z,9.07
2018-10-16T00:55:28.665Z,8.38
2018-10-16T00:57:56.475Z,7.83
2018-10-16T01:00:24.203Z,8.10
2018-10-16T01:02:51.892Z,8.17
2018-10-16T01:05:19.562Z,8.13
2018-10-16T01:07:47.189Z,7.65
2018-10-16T01:10:14.840Z,9.13
2018-10-16T01:12:42.621Z,8.03
2018-10-16T01:15:11.048Z,9.05
2018-10-16T01:17:39.256Z,9.10
2018-10-16T01:20:10.068Z,7.50
2018-10-16T01:22:37.967Z,7.63
2018-10-16T01:25:06.854Z,9.03
2018-10-16T01:27:34.569Z,7.80
2018-10-16T01:30:02.256Z,8.38
2018-10-16T01:32:29.946Z,8.45
2018-10-16T01:34:57.604Z,8.77
2018-10-16T01:37:25.300Z,7.70
2018-10-16T01:39:52.931Z,9.10
2018-10-16T01:42:20.670Z,7.03
2018-10-16T01:44:48.414Z,7.30
2018-10-16T01:47:16.155Z,8.27
2018-10-16T01:49:43.862Z,8.03
2018-10-16T01:52:11.563Z,8.90
2018-10-16T01:54:39.286Z,9.70
2018-10-16T01:57:06.953Z,8.70
2018-10-16T01:59:34.674Z,9.55
2018-10-16T02:02:02.972Z,9.55
2018-10-16T02:04:30.642Z,8.83
2018-10-16T02:06:58.354Z,9.38
2018-10-16T02:09:34.539Z,7.70
2018-10-16T02:12:02.240Z,9.23
2018-10-16T02:14:30.097Z,8.55
2018-10-16T02:16:57.791Z,7.47
2018-10-16T02:19:25.623Z,9.30
2018-10-16T02:21:53.370Z,9.50
2018-10-16T02:24:21.051Z,8.00
2018-10-16T02:26:48.739Z,8.80
2018-10-16T02:29:16.572Z,8.90
2018-10-16T02:31:44.297Z,9.93
2018-10-16T02:34:12.026Z,9.13
2018-10-16T02:36:39.711Z,9.47
2018-10-16T02:39:08.592Z,10.30
2018-10-16T02:41:36.394Z,9.87
2018-10-16T02:44:04.913Z,8.37
2018-10-16T02:46:32.555Z,9.75
2018-10-16T02:49:00.239Z,9.80
2018-10-16T02:51:27.901Z,9.40
2018-10-16T02:53:55.655Z,8.93
2018-10-16T02:56:23.315Z,9.08
2018-10-16T02:58:57.819Z,10.23
2018-10-16T03:01:25.847Z,7.60
2018-10-16T03:03:53.588Z,8.00
2018-10-16T03:06:21.307Z,8.43
2018-10-16T03:08:49.049Z,10.08
2018-10-16T03:11:16.974Z,9.63
2018-10-16T03:13:44.709Z,8.23
2018-10-16T03:16:12.350Z,8.97
2018-10-16T03:18:40.014Z,8.07
2018-10-16T03:21:07.707Z,8.68
2018-10-16T03:23:35.350Z,8.13
2018-10-16T03:26:03.118Z,8.17
2018-10-16T03:28:30.938Z,7.77
2018-10-16T03:30:58.632Z,8.23
2018-10-16T03:33:26.378Z,8.70
2018-10-16T03:35:54.224Z,7.97
2018-10-16T03:38:21.949Z,8.00
2018-10-16T03:40:49.621Z,8.10
2018-10-16T03:43:17.353Z,7.65
2018-10-16T03:45:45.095Z,7.53
2018-10-16T03:48:12.801Z,7.37
2018-10-16T03:50:40.532Z,7.60
2018-10-16T03:53:08.288Z,7.33
2018-10-16T03:55:36.009Z,9.33
2018-10-16T03:58:04.286Z,8.23
2018-10-16T04:00:31.957Z,7.70
2018-10-16T04:02:59.621Z,9.13
2018-10-16T04:05:27.291Z,7.73
2018-10-16T04:07:54.981Z,9.10
2018-10-16T04:10:22.715Z,7.63
2018-10-16T04:12:50.405Z,8.15
2018-10-16T04:15:18.126Z,7.50
2018-10-16T04:17:45.777Z,8.38
2018-10-16T04:20:13.423Z,8.10
2018-10-16T04:22:41.051Z,9.13
2018-10-16T04:25:09.051Z,9.30
2018-10-16T04:27:36.743Z,8.33
2018-10-16T04:30:05.429Z,8.30
2018-10-16T04:32:33.137Z,8.23
2018-10-16T04:35:00.861Z,8.80
2018-10-16T04:37:28.588Z,8.17
2018-10-16T04:39:56.215Z,8.03
2018-10-16T04:42:23.871Z,8.08
2018-10-16T04:44:51.551Z,8.30
2018-10-16T04:47:19.309Z,7.90
2018-10-16T04:49:47.002Z,7.87
2018-10-16T04:52:14.665Z,7.80
2018-10-16T04:54:42.263Z,8.20
2018-10-16T04:57:09.886Z,8.23
2018-10-16T04:59:37.570Z,7.97
2018-10-16T05:02:05.583Z,8.90
2018-10-16T05:04:33.244Z,7.42
2018-10-16T05:07:01.103Z,8.23
2018-10-16T05:09:28.742Z,7.10
2018-10-16T05:11:56.480Z,8.80
2018-10-16T05:14:24.137Z,8.40
2018-10-16T05:16:51.892Z,8.25
2018-10-16T05:19:19.563Z,9.03
2018-10-16T05:21:47.444Z,8.20
2018-10-16T05:24:15.185Z,8.80
2018-10-16T05:26:42.952Z,8.80
2018-10-16T05:29:10.984Z,8.50
2018-10-16T05:31:38.853Z,7.53
2018-10-16T05:34:07.442Z,7.73
2018-10-16T05:36:35.053Z,8.05
2018-10-16T05:39:03.792Z,9.17
2018-10-16T05:41:31.502Z,7.80
2018-10-16T05:43:59.156Z,7.33
2018-10-16T05:46:26.910Z,9.55
2018-10-16T05:48:54.560Z,8.25
2018-10-16T05:51:22.304Z,8.17
2018-10-16T05:53:50.005Z,9.53
2018-10-16T05:56:17.673Z,9.60
2018-10-16T05:58:45.325Z,8.15
2018-10-16T06:01:13.163Z,9.27
2018-10-16T06:03:40.821Z,10.60
2018-10-16T06:06:08.481Z,7.85
2018-10-16T06:08:36.179Z,8.20
2018-10-16T06:11:04.145Z,8.43
2018-10-16T06:13:31.909Z,9.23
2018-10-16T06:15:59.645Z,8.00
2018-10-16T06:18:27.335Z,8.50
2018-10-16T06:20:54.983Z,8.48
2018-10-16T06:23:22.628Z,8.60
2018-10-16T06:25:50.318Z,9.53
2018-10-16T06:28:20.489Z,9.50
2018-10-16T06:30:48.175Z,8.87
2018-10-16T06:33:18.141Z,8.55
2018-10-16T06:35:45.736Z,9.33
2018-10-16T06:38:13.378Z,8.73
2018-10-16T06:40:41.121Z,9.63
2018-10-16T06:43:08.768Z,9.67
2018-10-16T06:45:36.487Z,9.47
2018-10-16T06:48:04.818Z,9.00
2018-10-16T06:50:32.543Z,10.20
2018-10-16T06:53:07.144Z,8.77
2018-10-16T06:55:34.865Z,9.17
2018-10-16T06:58:03.046Z,9.45
2018-10-16T07:00:30.768Z,8.83
2018-10-16T07:02:58.435Z,9.05
2018-10-16T07:05:26.151Z,8.70
2018-10-16T07:07:53.870Z,9.70
2018-10-16T07:10:21.656Z,9.50
2018-10-16T07:12:49.401Z,9.13
2018-10-16T07:15:17.052Z,10.70
2018-10-16T07:17:44.820Z,10.85
2018-10-16T07:20:12.922Z,8.68
2018-10-16T07:22:40.552Z,8.83
2018-10-16T07:25:08.765Z,8.60
2018-10-16T07:27:36.453Z,9.15
2018-10-16T07:30:06.477Z,10.20
2018-10-16T07:32:34.100Z,9.97
2018-10-16T07:35:01.842Z,11.10
2018-10-16T07:37:29.533Z,10.38
2018-10-16T07:39:57.231Z,10.43
2018-10-16T07:42:24.918Z,9.70
2018-10-16T07:44:52.579Z,8.27
2018-10-16T07:47:20.205Z,8.88
2018-10-16T07:49:47.934Z,9.90
2018-10-16T07:52:15.631Z,9.90
2018-10-16T07:54:43.294Z,9.60
2018-10-16T07:57:11.126Z,10.90
2018-10-16T07:59:38.677Z,9.63
2018-10-16T08:02:06.361Z,8.87
2018-10-16T08:04:34.023Z,9.53
2018-10-16T08:07:01.639Z,9.35
2018-10-16T08:09:29.304Z,10.57
2018-10-16T08:11:56.962Z,10.87
2018-10-16T08:14:24.646Z,10.45
2018-10-16T08:16:52.324Z,8.58
2018-10-16T08:19:19.961Z,9.97
2018-10-16T08:21:47.740Z,8.40
2018-10-16T08:24:15.380Z,9.60
2018-10-16T08:26:43.014Z,9.53
2018-10-16T08:29:10.692Z,10.77
2018-10-16T08:31:38.466Z,9.38
2018-10-16T08:34:06.450Z,9.10
2018-10-16T08:36:34.565Z,9.38
2018-10-16T08:39:26.069Z,10.40
2018-10-16T08:44:43.510Z,9.33
2018-10-16T08:47:28.926Z,8.67
2018-10-16T08:50:14.142Z,9.70
2018-10-16T08:55:16.028Z,9.53
2018-10-16T08:57:43.694Z,9.25
2018-10-16T09:00:11.381Z,9.95
2018-10-16T09:02:39.058Z,9.20
2018-10-16T09:05:06.878Z,9.70
2018-10-16T09:07:34.510Z,9.73
2018-10-16T09:10:03.511Z,9.90
2018-10-16T09:12:31.242Z,9.53
2018-10-16T09:14:58.946Z,8.70
2018-10-16T09:17:26.624Z,10.27
2018-10-16T09:19:54.228Z,9.40
2018-10-16T09:22:21.878Z,9.33
2018-10-16T09:24:49.578Z,8.83
2018-10-16T09:27:17.250Z,9.90
2018-10-16T09:29:45.365Z,9.90
2018-10-16T09:32:13.048Z,9.90
2018-10-16T09:34:40.691Z,8.30
2018-10-16T09:37:08.472Z,11.57
2018-10-16T09:39:36.203Z,9.60
2018-10-16T09:42:04.285Z,9.30
2018-10-16T09:44:31.919Z,10.27
2018-10-16T09:46:59.572Z,10.08
2018-10-16T09:49:27.224Z,10.45
2018-10-16T09:51:54.916Z,10.07
2018-10-16T09:54:22.548Z,9.20
2018-10-16T09:56:50.309Z,11.18
2018-10-16T09:59:18.005Z,11.20
2018-10-16T10:01:47.425Z,10.60
2018-10-16T10:04:15.220Z,9.77
2018-10-16T10:06:42.822Z,9.60
2018-10-16T10:09:12.067Z,9.30
2018-10-16T10:11:39.960Z,10.30
2018-10-16T10:14:08.016Z,9.53
2018-10-16T10:16:36.171Z,9.90
2018-10-16T10:19:04.138Z,10.83
2018-10-16T10:21:31.840Z,9.67
2018-10-16T10:23:59.540Z,9.40
2018-10-16T10:26:27.282Z,8.65
2018-10-16T10:28:55.187Z,9.53
2018-10-16T10:31:22.858Z,8.40
2018-10-16T10:33:50.787Z,9.73
2018-10-16T10:36:18.474Z,9.00
2018-10-16T10:38:46.353Z,9.50
2018-10-16T10:41:13.993Z,10.23
2018-10-16T10:43:41.747Z,9.30
2018-10-16T10:46:09.408Z,8.50
2018-10-16T10:48:37.419Z,9.47
2018-10-16T10:51:05.708Z,9.10
2018-10-16T10:53:33.267Z,9.78
2018-10-16T10:56:00.955Z,10.23
2018-10-16T10:58:28.682Z,9.50
2018-10-16T11:00:56.334Z,9.83
2018-10-16T11:03:24.219Z,9.00
2018-10-16T11:05:51.708Z,10.38
2018-10-16T11:08:19.371Z,9.87
2018-10-16T11:10:47.018Z,8.83
2018-10-16T11:13:14.634Z,8.55
2018-10-16T11:15:42.291Z,9.70
2018-10-16T11:18:09.919Z,9.83
2018-10-16T11:20:37.506Z,9.13
2018-10-16T11:23:05.323Z,8.07
2018-10-16T11:25:32.982Z,10.23
2018-10-16T11:28:00.671Z,7.73
2018-10-16T11:30:28.325Z,9.35
2018-10-16T11:32:55.954Z,7.73
2018-10-16T11:35:23.609Z,8.58
2018-10-16T11:37:51.316Z,9.07
2018-10-16T11:40:18.990Z,9.10
2018-10-16T11:42:46.650Z,7.73
2018-10-16T11:45:14.480Z,8.28
2018-10-16T11:47:42.165Z,7.60
2018-10-16T11:50:10.842Z,8.33
2018-10-16T11:52:38.467Z,7.77
2018-10-16T11:55:06.565Z,7.50
2018-10-16T11:57:34.167Z,8.10
2018-10-16T12:00:01.852Z,7.72
2018-10-16T12:02:29.522Z,7.08
2018-10-16T12:04:57.220Z,8.50
2018-10-16T12:07:24.888Z,7.70
2018-10-16T12:09:52.579Z,7.97
2018-10-16T12:12:20.251Z,8.08
2018-10-16T12:14:47.871Z,12.70
2018-10-16T12:17:19.362Z,7.83
2018-10-16T12:19:50.327Z,10.73
2018-10-16T12:22:17.960Z,11.30
2018-10-16T12:24:45.628Z,9.28
2018-10-16T12:27:13.515Z,7.03
2018-10-16T12:29:41.112Z,8.13
2018-10-16T12:32:08.812Z,7.20
2018-10-16T12:34:36.504Z,8.67
2018-10-16T12:37:04.713Z,8.03
2018-10-16T12:39:32.393Z,8.00
2018-10-16T12:42:00.061Z,7.53
2018-10-16T12:44:27.661Z,6.87
2018-10-16T12:46:55.411Z,6.63
2018-10-16T12:49:23.040Z,7.47
2018-10-16T12:51:50.866Z,7.08
2018-10-16T12:54:18.461Z,6.63
2018-10-16T12:56:46.138Z,7.80
2018-10-16T12:59:13.876Z,6.80
2018-10-16T13:01:41.559Z,6.67
2018-10-16T13:04:09.357Z,7.63
2018-10-16T13:06:37.005Z,6.90
2018-10-16T13:09:07.371Z,7.15
2018-10-16T13:11:34.967Z,6.77
2018-10-16T13:14:02.650Z,7.08
2018-10-16T13:16:30.303Z,7.07
2018-10-16T13:18:58.172Z,7.80
2018-10-16T13:21:26.043Z,8.70
2018-10-16T13:23:53.810Z,7.57
2018-10-16T13:26:21.504Z,6.93
2018-10-16T13:28:49.217Z,7.47
2018-10-16T13:31:16.934Z,6.55
2018-10-16T13:33:44.620Z,6.37
2018-10-16T13:36:12.616Z,7.63
2018-10-16T13:38:40.403Z,7.60
2018-10-16T13:41:08.055Z,7.53
2018-10-16T13:43:35.630Z,7.92
2018-10-16T13:46:03.737Z,7.40
2018-10-16T13:48:31.466Z,6.70
2018-10-16T13:50:59.096Z,6.30
2018-10-16T13:53:26.706Z,7.60
2018-10-16T13:55:54.378Z,7.57
2018-10-16T13:58:22.046Z,7.40
2018-10-16T14:00:49.685Z,6.97
2018-10-16T14:03:17.302Z,6.47
2018-10-16T14:05:44.926Z,7.70
2018-10-16T14:08:12.676Z,7.90
2018-10-16T14:10:40.333Z,6.83
2018-10-16T14:13:08.018Z,7.50
2018-10-16T14:15:35.640Z,7.60
2018-10-16T14:18:03.389Z,6.80
2018-10-16T14:20:31.028Z,8.03
2018-10-16T14:22:58.653Z,6.33
2018-10-16T14:25:26.311Z,7.35
2018-10-16T14:27:54.010Z,6.97
2018-10-16T14:30:21.687Z,7.90
2018-10-16T14:32:49.291Z,8.10
2018-10-16T14:35:17.095Z,8.20
2018-10-16T14:37:44.755Z,8.40
2018-10-16T14:40:13.825Z,7.30
2018-10-16T14:42:41.776Z,8.03
2018-10-16T14:45:10.425Z,7.73
2018-10-16T14:47:38.095Z,7.80
2018-10-16T14:50:06.499Z,8.95
2018-10-16T14:52:34.331Z,7.90
2018-10-16T14:55:02.276Z,8.37
2018-10-16T14:57:29.975Z,8.70
2018-10-16T14:59:57.663Z,8.25
2018-10-16T15:02:25.369Z,9.80
2018-10-16T15:04:53.067Z,8.47
2018-10-16T15:07:20.691Z,10.43
2018-10-16T15:09:48.492Z,9.85
2018-10-16T15:12:16.147Z,9.28
2018-10-16T15:14:43.841Z,9.17
2018-10-16T15:17:11.511Z,10.87
2018-10-16T15:19:39.179Z,9.50
2018-10-16T15:22:06.942Z,10.75
2018-10-16T15:24:34.565Z,10.27
2018-10-16T15:27:02.182Z,11.60
2018-10-16T15:29:29.838Z,11.60
2018-10-16T15:31:57.529Z,11.47
2018-10-16T15:34:25.290Z,11.33
2018-10-16T15:36:52.978Z,12.80
2018-10-16T15:39:20.690Z,11.70
2018-10-16T15:41:48.388Z,12.40
2018-10-16T15:44:16.090Z,11.90
2018-10-16T15:46:43.748Z,11.17
2018-10-16T15:49:11.515Z,12.68
2018-10-16T15:51:39.362Z,11.20
2018-10-16T15:54:07.182Z,11.10
2018-10-16T15:56:34.875Z,11.97
2018-10-16T15:59:02.550Z,11.95
2018-10-16T16:01:30.262Z,11.50
2018-10-16T16:03:58.118Z,11.60
2018-10-16T16:06:25.779Z,12.10
2018-10-16T16:08:53.528Z,13.10
2018-10-16T16:11:21.188Z,11.57
2018-10-16T16:13:48.900Z,12.10
2018-10-16T16:16:16.774Z,14.30
2018-10-16T16:18:44.500Z,13.90
2018-10-16T16:21:12.250Z,13.40
2018-10-16T16:23:39.940Z,13.20
2018-10-16T16:26:07.794Z,13.88
2018-10-16T16:28:35.694Z,13.20
2018-10-16T16:31:03.520Z,14.07
2018-10-16T16:33:31.284Z,14.97
2018-10-16T16:35:59.172Z,15.48
2018-10-16T16:38:26.842Z,15.00
2018-10-16T16:40:54.645Z,14.13
2018-10-16T16:43:22.435Z,13.70
2018-10-16T16:45:50.201Z,13.23
2018-10-16T16:48:17.915Z,11.90
2018-10-16T16:50:45.719Z,14.13
2018-10-16T16:53:13.573Z,13.00
2018-10-16T16:55:41.474Z,15.28
2018-10-16T16:58:09.530Z,13.68
2018-10-16T17:00:37.224Z,12.98
2018-10-16T17:03:05.120Z,14.83
2018-10-16T17:05:32.911Z,15.00
2018-10-16T17:08:01.148Z,14.18
2018-10-16T17:10:28.850Z,15.17
2018-10-16T17:12:57.004Z,14.43
2018-10-16T17:15:24.865Z,15.77
2018-10-16T17:17:53.037Z,14.40
2018-10-16T17:20:20.825Z,14.30
2018-10-16T17:22:48.669Z,15.30
2018-10-16T17:25:16.534Z,14.63
2018-10-16T17:27:44.805Z,15.45
2018-10-16T17:30:14.640Z,15.07
2018-10-16T17:32:42.970Z,17.63
2018-10-16T17:35:11.349Z,16.30
2018-10-16T17:37:39.838Z,15.57
2018-10-16T17:40:10.224Z,15.10
2018-10-16T17:42:38.012Z,18.67
2018-10-16T17:45:07.895Z,14.70
2018-10-16T17:47:35.957Z,17.33
2018-10-16T17:50:04.816Z,16.13
2018-10-16T17:52:32.713Z,17.53
2018-10-16T17:55:00.719Z,17.17
2018-10-16T17:57:28.972Z,19.40
2018-10-16T17:59:56.743Z,18.17
2018-10-16T18:02:24.481Z,15.77
2018-10-16T18:04:52.258Z,16.65
2018-10-16T18:07:23.587Z,16.90
2018-10-16T18:09:51.504Z,17.17
2018-10-16T18:12:19.356Z,16.13
2018-10-16T18:14:47.245Z,17.50
2018-10-16T18:17:14.995Z,16.60
2018-10-16T18:19:42.764Z,18.05
2018-10-16T18:22:10.830Z,18.80
2018-10-16T18:24:38.912Z,20.02
2018-10-16T18:27:06.763Z,18.07
2018-10-16T18:29:34.483Z,17.00
2018-10-16T18:32:02.240Z,18.52
2018-10-16T18:34:30.379Z,18.92
2018-10-16T18:36:58.287Z,17.15
2018-10-16T18:39:26.199Z,19.95
2018-10-16T18:41:53.993Z,18.55
2018-10-16T18:44:21.704Z,17.37
2018-10-16T18:46:49.782Z,18.87
2018-10-16T18:49:17.540Z,18.98
2018-10-16T18:51:45.491Z,17.77
2018-10-16T18:54:13.283Z,19.35
2018-10-16T18:56:41.429Z,20.80
2018-10-16T18:59:09.297Z,20.82
2018-10-16T19:01:37.333Z,20.37
2018-10-16T19:04:05.965Z,20.70
2018-10-16T19:06:33.947Z,20.63
2018-10-16T19:09:02.067Z,21.83
2018-10-16T19:11:30.155Z,23.77
2018-10-16T19:13:58.197Z,21.60
2018-10-16T19:16:26.348Z,21.33
2018-10-16T19:18:54.332Z,26.40
2018-10-16T19:21:22.509Z,23.03
2018-10-16T19:23:50.657Z,24.40
2018-10-16T19:26:18.618Z,25.10
2018-10-16T19:28:46.707Z,26.53
2018-10-16T19:31:14.806Z,24.60
2018-10-16T19:33:43.107Z,24.93
2018-10-16T19:36:11.646Z,24.80
2018-10-16T19:38:39.734Z,23.40
2018-10-16T19:41:07.706Z,25.80
2018-10-16T19:43:35.799Z,23.37
2018-10-16T19:46:03.773Z,23.80
2018-10-16T19:48:32.101Z,22.30
2018-10-16T19:51:00.135Z,23.93
2018-10-16T19:53:28.075Z,22.80
2018-10-16T19:55:56.233Z,23.90
2018-10-16T19:58:23.904Z,21.60
2018-10-16T20:00:55.252Z,22.17
2018-10-16T20:03:23.142Z,21.70
2018-10-16T20:05:50.933Z,21.20
2018-10-16T20:08:18.866Z,22.47
2018-10-16T20:10:46.874Z,22.87
2018-10-16T20:13:15.968Z,21.13
2018-10-16T20:15:44.139Z,21.10
2018-10-16T20:18:12.006Z,21.17
2018-10-16T20:20:39.928Z,20.50
2018-10-16T20:23:07.792Z,22.07
2018-10-16T20:25:35.687Z,21.83
2018-10-16T20:28:04.365Z,22.03
2018-10-16T20:30:32.225Z,21.73
2018-10-16T20:33:00.074Z,22.03
2018-10-16T20:35:27.891Z,20.83
2018-10-16T20:37:55.724Z,25.08
2018-10-16T20:40:23.452Z,23.67
2018-10-16T20:42:51.356Z,23.62
2018-10-16T20:45:19.133Z,22.60
2018-10-16T20:47:46.777Z,23.97
2018-10-16T20:50:14.518Z,24.27
2018-10-16T20:52:42.211Z,24.13
2018-10-16T20:55:09.976Z,23.25
2018-10-16T20:57:38.049Z,22.95
2018-10-16T21:00:06.678Z,21.80
2018-10-16T21:02:34.284Z,22.57
2018-10-16T21:05:02.055Z,21.77
2018-10-16T21:07:29.775Z,22.97
2018-10-16T21:09:57.365Z,21.00
2018-10-16T21:12:25.046Z,20.60
2018-10-16T21:14:52.738Z,22.67
2018-10-16T21:17:20.454Z,22.50
2018-10-16T21:19:48.245Z,20.63
2018-10-16T21:22:15.902Z,21.95
2018-10-16T21:24:43.526Z,22.73
2018-10-16T21:27:11.969Z,22.37
2018-10-16T21:29:39.645Z,23.50
2018-10-16T21:32:08.114Z,21.70
2018-10-16T21:34:35.816Z,22.60
2018-10-16T21:37:03.671Z,28.98
2018-10-16T21:39:31.334Z,25.02
2018-10-16T21:41:58.990Z,25.67
2018-10-16T21:44:26.650Z,24.30
2018-10-16T21:46:54.327Z,23.30
2018-10-16T21:49:22.654Z,24.87
2018-10-16T21:51:50.658Z,24.30
2018-10-16T21:54:18.369Z,24.60
2018-10-16T21:56:46.291Z,23.47
2018-10-16T21:59:14.058Z,22.50
2018-10-16T22:01:47.452Z,22.83
2018-10-16T22:04:15.186Z,25.30
2018-10-16T22:06:42.911Z,25.30
2018-10-16T22:09:12.334Z,23.67
2018-10-16T22:11:40.038Z,24.50
2018-10-16T22:14:08.438Z,22.22
2018-10-16T22:16:36.166Z,22.20
2018-10-16T22:19:04.343Z,22.73
2018-10-16T22:21:32.016Z,23.80
2018-10-16T22:23:59.870Z,24.07
2018-10-16T22:26:27.562Z,23.50
2018-10-16T22:28:55.245Z,24.32
2018-10-16T22:31:23.052Z,22.90
2018-10-16T22:33:50.730Z,24.57
2018-10-16T22:36:18.370Z,21.90
2018-10-16T22:38:46.035Z,24.35
2018-10-16T22:41:13.742Z,22.87
2018-10-16T22:43:41.405Z,24.50
2018-10-16T22:46:09.133Z,22.37
2018-10-16T22:48:36.705Z,24.20
2018-10-16T22:51:04.461Z,23.20
2018-10-16T22:53:32.121Z,23.67
2018-10-16T22:55:59.805Z,24.15
2018-10-16T22:58:27.475Z,25.30
2018-10-16T23:00:55.234Z,25.93
2018-10-16T23:03:22.845Z,23.87
2018-10-16T23:05:50.513Z,24.50
2018-10-16T23:08:18.185Z,23.02
2018-10-16T23:10:45.825Z,22.80
2018-10-16T23:13:13.475Z,24.13
2018-10-16T23:15:41.133Z,25.08
2018-10-16T23:18:08.771Z,21.40
2018-10-16T23:20:36.490Z,23.00
2018-10-16T23:23:04.942Z,25.60
2018-10-16T23:25:32.650Z,23.57
2018-10-16T23:28:00.478Z,24.30
2018-10-16T23:30:28.144Z,25.23
2018-10-16T23:32:55.840Z,22.97
2018-10-16T23:35:23.532Z,25.50
2018-10-16T23:37:51.230Z,24.33
2018-10-16T23:40:19.004Z,25.80
2018-10-16T23:42:46.722Z,25.70
2018-10-16T23:45:14.446Z,25.57
2018-10-16T23:47:42.163Z,23.87
2018-10-16T23:50:09.917Z,26.57
2018-10-16T23:52:37.590Z,23.77
2018-10-16T23:55:07.936Z,25.40
2018-10-16T23:57:35.616Z,21.73
